sensor_id;sensor_type;location;lat;lon;timestamp;temperature;humidity
62363;DHT22;48396;48.426;1.500;2023-03-14T00:01:56;12.50;99.90
62363;DHT22;48396;48.426;1.500;2023-03-14T00:04:22;12.60;99.90
62363;DHT22;48396;48.426;1.500;2023-03-14T00:06:49;12.50;99.90
62363;DHT22;48396;48.426;1.500;2023-03-14T00:09:15;12.50;99.90
62363;DHT22;48396;48.426;1.500;2023-03-14T00:11:42;12.50;99.90
62363;DHT22;48396;48.426;1.500;2023-03-14T00:14:09;12.50;99.90
62363;DHT22;48396;48.426;1.500;2023-03-14T00:16:35;12.60;99.90
62363;DHT22;48396;48.426;1.500;2023-03-14T00:19:01;12.70;99.90
62363;DHT22;48396;48.426;1.500;2023-03-14T00:21:28;12.70;99.90
62363;DHT22;48396;48.426;1.500;2023-03-14T00:23:54;12.70;99.90
62363;DHT22;48396;48.426;1.500;2023-03-14T00:26:20;12.70;99.90
62363;DHT22;48396;48.426;1.500;2023-03-14T00:28:47;12.70;99.90
62363;DHT22;48396;48.426;1.500;2023-03-14T00:31:16;12.60;99.90
62363;DHT22;48396;48.426;1.500;2023-03-14T00:33:43;12.60;99.90
62363;DHT22;48396;48.426;1.500;2023-03-14T00:36:13;12.60;99.90
62363;DHT22;48396;48.426;1.500;2023-03-14T00:38:42;12.60;99.90
62363;DHT22;48396;48.426;1.500;2023-03-14T00:41:10;12.50;99.90
62363;DHT22;48396;48.426;1.500;2023-03-14T00:43:36;12.60;99.90
62363;DHT22;48396;48.426;1.500;2023-03-14T00:46:03;12.60;99.90
62363;DHT22;48396;48.426;1.500;2023-03-14T00:48:29;12.60;99.90
62363;DHT22;48396;48.426;1.500;2023-03-14T00:50:55;12.60;99.90
62363;DHT22;48396;48.426;1.500;2023-03-14T00:53:21;12.50;99.90
62363;DHT22;48396;48.426;1.500;2023-03-14T00:55:47;12.50;99.90
62363;DHT22;48396;48.426;1.500;2023-03-14T00:58:15;12.40;99.90
62363;DHT22;48396;48.426;1.500;2023-03-14T01:00:43;12.50;99.90
62363;DHT22;48396;48.426;1.500;2023-03-14T01:03:09;12.60;99.90
62363;DHT22;48396;48.426;1.500;2023-03-14T01:05:35;12.60;99.90
62363;DHT22;48396;48.426;1.500;2023-03-14T01:08:01;12.50;99.90
62363;DHT22;48396;48.426;1.500;2023-03-14T01:10:28;12.60;99.90
62363;DHT22;48396;48.426;1.500;2023-03-14T01:12:53;12.60;99.90
62363;DHT22;48396;48.426;1.500;2023-03-14T01:15:19;12.60;99.90
62363;DHT22;48396;48.426;1.500;2023-03-14T01:17:45;12.70;99.90
62363;DHT22;48396;48.426;1.500;2023-03-14T01:20:13;12.60;99.90
62363;DHT22;48396;48.426;1.500;2023-03-14T01:22:40;12.60;99.90
62363;DHT22;48396;48.426;1.500;2023-03-14T01:25:07;12.50;99.90
62363;DHT22;48396;48.426;1.500;2023-03-14T01:27:33;12.60;99.90
62363;DHT22;48396;48.426;1.500;2023-03-14T01:29:59;12.50;99.90
62363;DHT22;48396;48.426;1.500;2023-03-14T01:32:25;12.60;99.90
62363;DHT22;48396;48.426;1.500;2023-03-14T01:34:51;12.60;99.90
62363;DHT22;48396;48.426;1.500;2023-03-14T01:37:17;12.70;99.90
62363;DHT22;48396;48.426;1.500;2023-03-14T01:39:42;12.60;99.90
62363;DHT22;48396;48.426;1.500;2023-03-14T01:42:08;12.70;99.90
62363;DHT22;48396;48.426;1.500;2023-03-14T01:44:54;12.60;99.90
62363;DHT22;48396;48.426;1.500;2023-03-14T01:47:21;12.80;99.90
62363;DHT22;48396;48.426;1.500;2023-03-14T01:49:59;12.90;99.90
62363;DHT22;48396;48.426;1.500;2023-03-14T01:52:47;12.80;99.90
62363;DHT22;48396;48.426;1.500;2023-03-14T01:55:17;12.90;99.90
62363;DHT22;48396;48.426;1.500;2023-03-14T01:57:47;12.90;99.90
62363;DHT22;48396;48.426;1.500;2023-03-14T02:00:17;12.90;99.90
62363;DHT22;48396;48.426;1.500;2023-03-14T02:02:49;12.60;99.90
62363;DHT22;48396;48.426;1.500;2023-03-14T02:05:18;12.70;99.90
62363;DHT22;48396;48.426;1.500;2023-03-14T02:07:49;12.70;99.90
62363;DHT22;48396;48.426;1.500;2023-03-14T02:10:17;12.70;99.90
62363;DHT22;48396;48.426;1.500;2023-03-14T02:12:48;12.80;99.90
62363;DHT22;48396;48.426;1.500;2023-03-14T02:15:14;12.80;99.90
62363;DHT22;48396;48.426;1.500;2023-03-14T02:17:42;12.80;99.90
62363;DHT22;48396;48.426;1.500;2023-03-14T02:20:34;12.90;99.90
62363;DHT22;48396;48.426;1.500;2023-03-14T02:23:04;12.90;99.90
62363;DHT22;48396;48.426;1.500;2023-03-14T02:25:54;13.00;99.90
62363;DHT22;48396;48.426;1.500;2023-03-14T02:28:22;12.90;99.90
62363;DHT22;48396;48.426;1.500;2023-03-14T02:30:48;12.90;99.90
62363;DHT22;48396;48.426;1.500;2023-03-14T02:33:17;13.00;99.90
62363;DHT22;48396;48.426;1.500;2023-03-14T02:35:56;12.90;99.90
62363;DHT22;48396;48.426;1.500;2023-03-14T02:38:53;12.90;99.90
62363;DHT22;48396;48.426;1.500;2023-03-14T02:41:21;12.80;99.90
62363;DHT22;48396;48.426;1.500;2023-03-14T02:43:47;12.90;99.90
62363;DHT22;48396;48.426;1.500;2023-03-14T02:46:16;12.90;99.90
62363;DHT22;48396;48.426;1.500;2023-03-14T02:48:47;12.90;99.90
62363;DHT22;48396;48.426;1.500;2023-03-14T02:51:14;12.90;99.90
62363;DHT22;48396;48.426;1.500;2023-03-14T02:53:40;12.80;99.90
62363;DHT22;48396;48.426;1.500;2023-03-14T02:56:09;12.80;99.90
62363;DHT22;48396;48.426;1.500;2023-03-14T02:58:35;12.80;99.90
62363;DHT22;48396;48.426;1.500;2023-03-14T03:01:01;12.80;99.90
62363;DHT22;48396;48.426;1.500;2023-03-14T03:03:27;12.90;99.90
62363;DHT22;48396;48.426;1.500;2023-03-14T03:05:54;12.90;99.90
62363;DHT22;48396;48.426;1.500;2023-03-14T03:08:22;12.80;99.90
62363;DHT22;48396;48.426;1.500;2023-03-14T03:10:48;12.80;99.90
62363;DHT22;48396;48.426;1.500;2023-03-14T03:13:15;12.80;99.90
62363;DHT22;48396;48.426;1.500;2023-03-14T03:15:41;12.90;99.90
62363;DHT22;48396;48.426;1.500;2023-03-14T03:18:07;12.90;99.90
62363;DHT22;48396;48.426;1.500;2023-03-14T03:20:33;12.90;99.90
62363;DHT22;48396;48.426;1.500;2023-03-14T03:22:59;12.90;99.90
62363;DHT22;48396;48.426;1.500;2023-03-14T03:25:25;12.90;99.90
62363;DHT22;48396;48.426;1.500;2023-03-14T03:27:51;12.90;99.90
62363;DHT22;48396;48.426;1.500;2023-03-14T03:30:17;12.90;99.90
62363;DHT22;48396;48.426;1.500;2023-03-14T03:32:43;12.80;99.90
62363;DHT22;48396;48.426;1.500;2023-03-14T03:35:09;12.90;99.90
62363;DHT22;48396;48.426;1.500;2023-03-14T03:37:35;12.90;99.90
62363;DHT22;48396;48.426;1.500;2023-03-14T03:40:02;12.90;99.90
62363;DHT22;48396;48.426;1.500;2023-03-14T03:42:31;13.00;99.90
62363;DHT22;48396;48.426;1.500;2023-03-14T03:44:57;12.90;99.90
62363;DHT22;48396;48.426;1.500;2023-03-14T03:47:23;12.90;99.90
62363;DHT22;48396;48.426;1.500;2023-03-14T03:49:49;12.90;99.90
62363;DHT22;48396;48.426;1.500;2023-03-14T03:52:14;12.90;99.90
62363;DHT22;48396;48.426;1.500;2023-03-14T03:54:40;12.90;99.90
62363;DHT22;48396;48.426;1.500;2023-03-14T03:57:06;12.90;99.90
62363;DHT22;48396;48.426;1.500;2023-03-14T03:59:32;12.90;99.90
62363;DHT22;48396;48.426;1.500;2023-03-14T04:01:57;12.90;99.90
62363;DHT22;48396;48.426;1.500;2023-03-14T04:04:23;12.90;99.90
62363;DHT22;48396;48.426;1.500;2023-03-14T04:06:49;13.00;99.90
62363;DHT22;48396;48.426;1.500;2023-03-14T04:09:15;12.90;99.90
62363;DHT22;48396;48.426;1.500;2023-03-14T04:11:40;12.90;99.90
62363;DHT22;48396;48.426;1.500;2023-03-14T04:14:07;12.80;99.90
62363;DHT22;48396;48.426;1.500;2023-03-14T04:16:33;12.80;99.90
62363;DHT22;48396;48.426;1.500;2023-03-14T04:19:00;12.90;99.90
62363;DHT22;48396;48.426;1.500;2023-03-14T04:21:26;12.90;99.90
62363;DHT22;48396;48.426;1.500;2023-03-14T04:23:52;12.90;99.90
62363;DHT22;48396;48.426;1.500;2023-03-14T04:26:18;13.00;99.90
62363;DHT22;48396;48.426;1.500;2023-03-14T04:28:44;12.90;99.90
62363;DHT22;48396;48.426;1.500;2023-03-14T04:31:17;12.80;99.90
62363;DHT22;48396;48.426;1.500;2023-03-14T04:33:43;12.80;99.90
62363;DHT22;48396;48.426;1.500;2023-03-14T04:36:09;12.70;99.90
62363;DHT22;48396;48.426;1.500;2023-03-14T04:38:35;12.60;99.90
62363;DHT22;48396;48.426;1.500;2023-03-14T04:41:01;12.50;99.90
62363;DHT22;48396;48.426;1.500;2023-03-14T04:43:27;12.50;99.90
62363;DHT22;48396;48.426;1.500;2023-03-14T04:45:54;12.40;99.90
62363;DHT22;48396;48.426;1.500;2023-03-14T04:48:20;12.40;99.90
62363;DHT22;48396;48.426;1.500;2023-03-14T04:50:49;12.30;99.90
62363;DHT22;48396;48.426;1.500;2023-03-14T04:53:16;12.30;99.90
62363;DHT22;48396;48.426;1.500;2023-03-14T04:55:42;12.30;99.90
62363;DHT22;48396;48.426;1.500;2023-03-14T04:58:12;12.30;99.90
62363;DHT22;48396;48.426;1.500;2023-03-14T05:00:38;12.20;99.90
62363;DHT22;48396;48.426;1.500;2023-03-14T05:03:03;12.10;99.30
62363;DHT22;48396;48.426;1.500;2023-03-14T05:05:29;12.10;98.90
62363;DHT22;48396;48.426;1.500;2023-03-14T05:07:55;12.00;98.20
62363;DHT22;48396;48.426;1.500;2023-03-14T05:10:21;12.00;97.30
62363;DHT22;48396;48.426;1.500;2023-03-14T05:12:46;11.90;97.00
62363;DHT22;48396;48.426;1.500;2023-03-14T05:15:12;11.90;97.30
62363;DHT22;48396;48.426;1.500;2023-03-14T05:17:38;12.00;97.50
62363;DHT22;48396;48.426;1.500;2023-03-14T05:20:04;12.00;97.20
62363;DHT22;48396;48.426;1.500;2023-03-14T05:22:34;12.00;97.00
62363;DHT22;48396;48.426;1.500;2023-03-14T05:25:00;11.90;96.30
62363;DHT22;48396;48.426;1.500;2023-03-14T05:27:26;11.90;96.00
62363;DHT22;48396;48.426;1.500;2023-03-14T05:29:52;11.80;94.90
62363;DHT22;48396;48.426;1.500;2023-03-14T05:32:17;11.70;95.00
62363;DHT22;48396;48.426;1.500;2023-03-14T05:34:43;11.80;95.20
62363;DHT22;48396;48.426;1.500;2023-03-14T05:37:09;11.80;95.30
62363;DHT22;48396;48.426;1.500;2023-03-14T05:39:35;11.80;95.00
62363;DHT22;48396;48.426;1.500;2023-03-14T05:42:00;11.70;94.80
62363;DHT22;48396;48.426;1.500;2023-03-14T05:44:26;11.60;94.10
62363;DHT22;48396;48.426;1.500;2023-03-14T05:46:52;11.50;93.80
62363;DHT22;48396;48.426;1.500;2023-03-14T05:49:17;11.50;93.70
62363;DHT22;48396;48.426;1.500;2023-03-14T05:51:43;11.40;93.40
62363;DHT22;48396;48.426;1.500;2023-03-14T05:54:09;11.40;93.60
62363;DHT22;48396;48.426;1.500;2023-03-14T05:56:35;11.30;93.50
62363;DHT22;48396;48.426;1.500;2023-03-14T05:59:00;11.40;93.60
62363;DHT22;48396;48.426;1.500;2023-03-14T06:01:29;11.40;93.00
62363;DHT22;48396;48.426;1.500;2023-03-14T06:03:55;11.30;93.10
62363;DHT22;48396;48.426;1.500;2023-03-14T06:06:21;11.70;91.70
62363;DHT22;48396;48.426;1.500;2023-03-14T06:08:47;11.60;91.50
62363;DHT22;48396;48.426;1.500;2023-03-14T06:11:12;11.40;91.80
62363;DHT22;48396;48.426;1.500;2023-03-14T06:13:38;11.40;92.00
62363;DHT22;48396;48.426;1.500;2023-03-14T06:16:05;11.30;91.90
62363;DHT22;48396;48.426;1.500;2023-03-14T06:18:31;11.40;91.70
62363;DHT22;48396;48.426;1.500;2023-03-14T06:20:57;11.10;92.30
62363;DHT22;48396;48.426;1.500;2023-03-14T06:23:23;11.00;92.80
62363;DHT22;48396;48.426;1.500;2023-03-14T06:25:50;11.30;92.00
62363;DHT22;48396;48.426;1.500;2023-03-14T06:28:15;11.30;92.10
62363;DHT22;48396;48.426;1.500;2023-03-14T06:30:41;11.00;93.20
62363;DHT22;48396;48.426;1.500;2023-03-14T06:33:07;11.30;92.80
62363;DHT22;48396;48.426;1.500;2023-03-14T06:35:33;11.20;93.00
62363;DHT22;48396;48.426;1.500;2023-03-14T06:37:58;11.00;93.80
62363;DHT22;48396;48.426;1.500;2023-03-14T06:40:25;10.80;94.50
62363;DHT22;48396;48.426;1.500;2023-03-14T06:42:50;10.90;94.70
62363;DHT22;48396;48.426;1.500;2023-03-14T06:45:16;11.00;94.70
62363;DHT22;48396;48.426;1.500;2023-03-14T06:47:42;11.10;94.90
62363;DHT22;48396;48.426;1.500;2023-03-14T06:50:09;11.10;95.00
62363;DHT22;48396;48.426;1.500;2023-03-14T06:52:35;11.00;95.30
62363;DHT22;48396;48.426;1.500;2023-03-14T06:55:01;11.00;95.60
62363;DHT22;48396;48.426;1.500;2023-03-14T06:57:27;10.90;95.90
62363;DHT22;48396;48.426;1.500;2023-03-14T06:59:53;11.00;96.10
62363;DHT22;48396;48.426;1.500;2023-03-14T07:02:18;11.20;95.80
62363;DHT22;48396;48.426;1.500;2023-03-14T07:04:44;11.00;96.00
62363;DHT22;48396;48.426;1.500;2023-03-14T07:07:10;10.80;96.70
62363;DHT22;48396;48.426;1.500;2023-03-14T07:09:36;11.00;96.80
62363;DHT22;48396;48.426;1.500;2023-03-14T07:12:02;10.90;96.80
62363;DHT22;48396;48.426;1.500;2023-03-14T07:14:29;11.00;97.20
62363;DHT22;48396;48.426;1.500;2023-03-14T07:16:55;11.10;96.50
62363;DHT22;48396;48.426;1.500;2023-03-14T07:19:22;11.10;96.80
62363;DHT22;48396;48.426;1.500;2023-03-14T07:21:48;11.20;96.60
62363;DHT22;48396;48.426;1.500;2023-03-14T07:24:14;11.30;96.30
62363;DHT22;48396;48.426;1.500;2023-03-14T07:26:40;11.10;96.50
62363;DHT22;48396;48.426;1.500;2023-03-14T07:29:05;11.10;96.70
62363;DHT22;48396;48.426;1.500;2023-03-14T07:31:33;10.80;96.90
62363;DHT22;48396;48.426;1.500;2023-03-14T07:33:59;10.80;97.20
62363;DHT22;48396;48.426;1.500;2023-03-14T07:36:25;10.80;97.20
62363;DHT22;48396;48.426;1.500;2023-03-14T07:38:50;10.80;96.80
62363;DHT22;48396;48.426;1.500;2023-03-14T07:41:17;11.00;97.00
62363;DHT22;48396;48.426;1.500;2023-03-14T07:43:43;11.10;96.70
62363;DHT22;48396;48.426;1.500;2023-03-14T07:46:20;11.10;96.90
62363;DHT22;48396;48.426;1.500;2023-03-14T07:48:46;11.20;96.40
62363;DHT22;48396;48.426;1.500;2023-03-14T07:51:17;11.30;96.60
62363;DHT22;48396;48.426;1.500;2023-03-14T07:53:44;11.30;96.40
62363;DHT22;48396;48.426;1.500;2023-03-14T07:56:11;11.40;96.20
62363;DHT22;48396;48.426;1.500;2023-03-14T07:58:43;11.30;96.20
62363;DHT22;48396;48.426;1.500;2023-03-14T08:01:10;11.40;96.10
62363;DHT22;48396;48.426;1.500;2023-03-14T08:03:36;11.20;96.40
62363;DHT22;48396;48.426;1.500;2023-03-14T08:06:03;11.30;96.40
62363;DHT22;48396;48.426;1.500;2023-03-14T08:08:29;11.40;96.50
62363;DHT22;48396;48.426;1.500;2023-03-14T08:10:55;11.40;96.60
62363;DHT22;48396;48.426;1.500;2023-03-14T08:13:21;11.50;96.60
62363;DHT22;48396;48.426;1.500;2023-03-14T08:15:49;11.40;96.50
62363;DHT22;48396;48.426;1.500;2023-03-14T08:18:15;11.40;96.10
62363;DHT22;48396;48.426;1.500;2023-03-14T08:20:40;11.40;96.00
62363;DHT22;48396;48.426;1.500;2023-03-14T08:23:06;11.40;95.30
62363;DHT22;48396;48.426;1.500;2023-03-14T08:25:32;11.40;95.00
62363;DHT22;48396;48.426;1.500;2023-03-14T08:27:58;11.40;95.30
62363;DHT22;48396;48.426;1.500;2023-03-14T08:30:24;11.40;95.60
62363;DHT22;48396;48.426;1.500;2023-03-14T08:32:50;11.40;95.70
62363;DHT22;48396;48.426;1.500;2023-03-14T08:35:16;11.40;95.60
62363;DHT22;48396;48.426;1.500;2023-03-14T08:37:42;11.40;95.60
62363;DHT22;48396;48.426;1.500;2023-03-14T08:40:09;11.40;95.80
62363;DHT22;48396;48.426;1.500;2023-03-14T08:42:39;11.40;95.70
62363;DHT22;48396;48.426;1.500;2023-03-14T08:45:06;11.40;95.60
62363;DHT22;48396;48.426;1.500;2023-03-14T08:47:33;11.40;95.30
62363;DHT22;48396;48.426;1.500;2023-03-14T08:49:58;11.40;95.30
62363;DHT22;48396;48.426;1.500;2023-03-14T08:52:24;11.40;95.40
62363;DHT22;48396;48.426;1.500;2023-03-14T08:54:50;11.40;95.40
62363;DHT22;48396;48.426;1.500;2023-03-14T08:57:16;11.50;95.20
62363;DHT22;48396;48.426;1.500;2023-03-14T08:59:42;11.40;95.10
62363;DHT22;48396;48.426;1.500;2023-03-14T09:02:11;11.40;95.20
62363;DHT22;48396;48.426;1.500;2023-03-14T09:04:37;11.40;95.40
62363;DHT22;48396;48.426;1.500;2023-03-14T09:07:03;11.50;95.40
62363;DHT22;48396;48.426;1.500;2023-03-14T09:09:30;11.50;95.00
62363;DHT22;48396;48.426;1.500;2023-03-14T09:11:56;11.50;95.20
62363;DHT22;48396;48.426;1.500;2023-03-14T09:14:22;11.60;95.10
62363;DHT22;48396;48.426;1.500;2023-03-14T09:16:48;11.60;94.90
62363;DHT22;48396;48.426;1.500;2023-03-14T09:19:14;11.70;94.50
62363;DHT22;48396;48.426;1.500;2023-03-14T09:21:39;11.70;94.10
62363;DHT22;48396;48.426;1.500;2023-03-14T09:24:05;11.70;93.60
62363;DHT22;48396;48.426;1.500;2023-03-14T09:26:31;11.80;92.90
62363;DHT22;48396;48.426;1.500;2023-03-14T09:28:57;11.70;92.10
62363;DHT22;48396;48.426;1.500;2023-03-14T09:31:23;11.70;92.50
62363;DHT22;48396;48.426;1.500;2023-03-14T09:33:48;11.70;92.50
62363;DHT22;48396;48.426;1.500;2023-03-14T09:36:14;11.80;92.20
62363;DHT22;48396;48.426;1.500;2023-03-14T09:38:40;11.80;91.10
62363;DHT22;48396;48.426;1.500;2023-03-14T09:41:22;11.90;91.00
62363;DHT22;48396;48.426;1.500;2023-03-14T09:43:57;11.90;91.10
62363;DHT22;48396;48.426;1.500;2023-03-14T09:46:24;11.90;90.80
62363;DHT22;48396;48.426;1.500;2023-03-14T09:48:50;11.80;90.60
62363;DHT22;48396;48.426;1.500;2023-03-14T09:51:20;11.80;90.60
62363;DHT22;48396;48.426;1.500;2023-03-14T09:53:49;11.80;90.80
62363;DHT22;48396;48.426;1.500;2023-03-14T09:56:27;11.80;90.50
62363;DHT22;48396;48.426;1.500;2023-03-14T09:58:57;11.80;90.50
62363;DHT22;48396;48.426;1.500;2023-03-14T10:01:29;11.80;90.80
62363;DHT22;48396;48.426;1.500;2023-03-14T10:03:57;11.80;90.70
62363;DHT22;48396;48.426;1.500;2023-03-14T10:06:29;11.80;90.80
62363;DHT22;48396;48.426;1.500;2023-03-14T10:08:56;11.90;90.70
62363;DHT22;48396;48.426;1.500;2023-03-14T10:11:25;12.00;90.30
62363;DHT22;48396;48.426;1.500;2023-03-14T10:14:11;12.00;88.20
62363;DHT22;48396;48.426;1.500;2023-03-14T10:16:46;12.00;87.00
62363;DHT22;48396;48.426;1.500;2023-03-14T10:19:14;12.10;86.90
62363;DHT22;48396;48.426;1.500;2023-03-14T10:21:52;12.10;88.30
62363;DHT22;48396;48.426;1.500;2023-03-14T10:24:33;12.20;88.20
62363;DHT22;48396;48.426;1.500;2023-03-14T10:27:05;12.30;86.90
62363;DHT22;48396;48.426;1.500;2023-03-14T10:29:55;12.40;84.50
62363;DHT22;48396;48.426;1.500;2023-03-14T10:32:46;12.40;83.70
62363;DHT22;48396;48.426;1.500;2023-03-14T10:35:22;12.30;83.30
62363;DHT22;48396;48.426;1.500;2023-03-14T10:38:13;12.50;84.30
62363;DHT22;48396;48.426;1.500;2023-03-14T10:40:41;12.50;83.50
62363;DHT22;48396;48.426;1.500;2023-03-14T10:43:18;12.50;83.80
62363;DHT22;48396;48.426;1.500;2023-03-14T10:45:58;12.40;83.80
62363;DHT22;48396;48.426;1.500;2023-03-14T10:48:32;12.50;84.30
62363;DHT22;48396;48.426;1.500;2023-03-14T10:51:11;12.50;83.40
62363;DHT22;48396;48.426;1.500;2023-03-14T10:56:07;12.60;81.70
62363;DHT22;48396;48.426;1.500;2023-03-14T10:58:41;12.70;81.40
62363;DHT22;48396;48.426;1.500;2023-03-14T11:04:06;12.70;80.80
62363;DHT22;48396;48.426;1.500;2023-03-14T11:06:56;12.80;80.30
62363;DHT22;48396;48.426;1.500;2023-03-14T11:09:39;12.90;78.50
62363;DHT22;48396;48.426;1.500;2023-03-14T11:29:42;12.50;78.10
62363;DHT22;48396;48.426;1.500;2023-03-14T11:32:32;12.60;79.00
62363;DHT22;48396;48.426;1.500;2023-03-14T11:35:04;12.70;79.00
62363;DHT22;48396;48.426;1.500;2023-03-14T11:37:44;12.70;78.30
62363;DHT22;48396;48.426;1.500;2023-03-14T11:42:48;12.70;76.60
62363;DHT22;48396;48.426;1.500;2023-03-14T11:45:29;12.50;76.40
62363;DHT22;48396;48.426;1.500;2023-03-14T11:51:12;12.50;78.20
62363;DHT22;48396;48.426;1.500;2023-03-14T11:54:03;12.50;79.30
62363;DHT22;48396;48.426;1.500;2023-03-14T11:56:34;12.50;80.10
62363;DHT22;48396;48.426;1.500;2023-03-14T11:59:16;12.60;81.60
62363;DHT22;48396;48.426;1.500;2023-03-14T12:06:59;12.60;81.60
62363;DHT22;48396;48.426;1.500;2023-03-14T12:09:28;12.60;81.60
62363;DHT22;48396;48.426;1.500;2023-03-14T12:12:00;12.60;81.80
62363;DHT22;48396;48.426;1.500;2023-03-14T12:14:36;12.70;81.50
62363;DHT22;48396;48.426;1.500;2023-03-14T12:17:24;12.70;80.30
62363;DHT22;48396;48.426;1.500;2023-03-14T12:22:51;12.90;79.60
62363;DHT22;48396;48.426;1.500;2023-03-14T12:25:21;13.00;80.90
62363;DHT22;48396;48.426;1.500;2023-03-14T12:30:29;13.10;81.30
62363;DHT22;48396;48.426;1.500;2023-03-14T12:33:18;12.90;80.40
62363;DHT22;48396;48.426;1.500;2023-03-14T12:35:52;12.90;80.90
62363;DHT22;48396;48.426;1.500;2023-03-14T12:43:46;12.80;81.80
62363;DHT22;48396;48.426;1.500;2023-03-14T12:48:46;12.60;84.30
62363;DHT22;48396;48.426;1.500;2023-03-14T12:51:20;12.50;85.70
62363;DHT22;48396;48.426;1.500;2023-03-14T12:56:40;12.10;90.50
62363;DHT22;48396;48.426;1.500;2023-03-14T13:02:21;11.90;92.00
62363;DHT22;48396;48.426;1.500;2023-03-14T13:05:03;11.90;92.60
62363;DHT22;48396;48.426;1.500;2023-03-14T13:10:26;12.10;92.50
62363;DHT22;48396;48.426;1.500;2023-03-14T13:13:02;12.00;93.20
62363;DHT22;48396;48.426;1.500;2023-03-14T13:15:39;12.20;93.50
62363;DHT22;48396;48.426;1.500;2023-03-14T13:18:12;12.30;93.20
62363;DHT22;48396;48.426;1.500;2023-03-14T13:20:42;12.60;93.00
62363;DHT22;48396;48.426;1.500;2023-03-14T13:23:21;12.60;93.30
62363;DHT22;48396;48.426;1.500;2023-03-14T13:25:48;12.80;93.20
62363;DHT22;48396;48.426;1.500;2023-03-14T13:28:14;12.90;93.10
62363;DHT22;48396;48.426;1.500;2023-03-14T13:30:44;12.80;92.60
62363;DHT22;48396;48.426;1.500;2023-03-14T13:33:21;12.70;92.80
62363;DHT22;48396;48.426;1.500;2023-03-14T13:35:58;12.60;93.00
62363;DHT22;48396;48.426;1.500;2023-03-14T13:38:26;12.50;93.50
62363;DHT22;48396;48.426;1.500;2023-03-14T13:40:59;12.20;94.20
62363;DHT22;48396;48.426;1.500;2023-03-14T13:43:32;12.00;94.90
62363;DHT22;48396;48.426;1.500;2023-03-14T13:46:25;11.90;96.10
62363;DHT22;48396;48.426;1.500;2023-03-14T13:48:57;11.80;97.20
62363;DHT22;48396;48.426;1.500;2023-03-14T13:51:24;12.10;97.40
62363;DHT22;48396;48.426;1.500;2023-03-14T13:53:54;12.30;97.10
62363;DHT22;48396;48.426;1.500;2023-03-14T13:56:25;12.30;97.10
62363;DHT22;48396;48.426;1.500;2023-03-14T13:58:53;12.50;95.90
62363;DHT22;48396;48.426;1.500;2023-03-14T14:01:35;12.50;95.10
62363;DHT22;48396;48.426;1.500;2023-03-14T14:04:08;12.80;94.80
62363;DHT22;48396;48.426;1.500;2023-03-14T14:06:36;12.70;94.50
62363;DHT22;48396;48.426;1.500;2023-03-14T14:09:12;12.70;93.80
62363;DHT22;48396;48.426;1.500;2023-03-14T14:11:42;12.70;93.80
62363;DHT22;48396;48.426;1.500;2023-03-14T14:14:25;12.50;93.60
62363;DHT22;48396;48.426;1.500;2023-03-14T14:16:54;12.20;94.30
62363;DHT22;48396;48.426;1.500;2023-03-14T14:19:22;12.10;94.90
62363;DHT22;48396;48.426;1.500;2023-03-14T14:21:48;11.80;95.30
62363;DHT22;48396;48.426;1.500;2023-03-14T14:24:15;11.60;95.40
62363;DHT22;48396;48.426;1.500;2023-03-14T14:26:47;11.40;96.00
62363;DHT22;48396;48.426;1.500;2023-03-14T14:29:38;11.40;96.30
62363;DHT22;48396;48.426;1.500;2023-03-14T14:32:12;11.30;96.60
62363;DHT22;48396;48.426;1.500;2023-03-14T14:34:47;11.40;96.80
62363;DHT22;48396;48.426;1.500;2023-03-14T14:37:29;11.40;96.80
62363;DHT22;48396;48.426;1.500;2023-03-14T14:40:07;11.50;97.10
62363;DHT22;48396;48.426;1.500;2023-03-14T14:42:39;11.50;97.00
62363;DHT22;48396;48.426;1.500;2023-03-14T14:45:09;11.50;96.90
62363;DHT22;48396;48.426;1.500;2023-03-14T14:53:38;11.90;97.20
62363;DHT22;48396;48.426;1.500;2023-03-14T14:56:18;11.90;97.50
62363;DHT22;48396;48.426;1.500;2023-03-14T14:58:48;12.00;97.60
62363;DHT22;48396;48.426;1.500;2023-03-14T15:01:17;12.20;96.90
62363;DHT22;48396;48.426;1.500;2023-03-14T15:03:46;12.30;96.90
62363;DHT22;48396;48.426;1.500;2023-03-14T15:06:14;12.40;96.80
62363;DHT22;48396;48.426;1.500;2023-03-14T15:08:40;12.40;96.60
62363;DHT22;48396;48.426;1.500;2023-03-14T15:11:06;12.40;96.20
62363;DHT22;48396;48.426;1.500;2023-03-14T15:13:32;12.30;96.20
62363;DHT22;48396;48.426;1.500;2023-03-14T15:15:57;12.30;96.40
62363;DHT22;48396;48.426;1.500;2023-03-14T15:18:25;12.20;96.40
62363;DHT22;48396;48.426;1.500;2023-03-14T15:20:53;12.20;96.40
62363;DHT22;48396;48.426;1.500;2023-03-14T15:23:20;12.20;96.60
62363;DHT22;48396;48.426;1.500;2023-03-14T15:25:46;12.10;96.20
62363;DHT22;48396;48.426;1.500;2023-03-14T15:28:18;11.80;95.60
62363;DHT22;48396;48.426;1.500;2023-03-14T15:30:46;11.40;95.60
62363;DHT22;48396;48.426;1.500;2023-03-14T15:33:13;11.40;96.10
62363;DHT22;48396;48.426;1.500;2023-03-14T15:35:39;11.40;96.10
62363;DHT22;48396;48.426;1.500;2023-03-14T15:38:12;11.50;96.30
62363;DHT22;48396;48.426;1.500;2023-03-14T15:40:38;11.60;96.30
62363;DHT22;48396;48.426;1.500;2023-03-14T15:43:04;11.80;96.40
62363;DHT22;48396;48.426;1.500;2023-03-14T15:45:30;11.90;96.50
62363;DHT22;48396;48.426;1.500;2023-03-14T15:47:56;12.10;96.50
62363;DHT22;48396;48.426;1.500;2023-03-14T15:50:23;12.20;96.50
62363;DHT22;48396;48.426;1.500;2023-03-14T15:52:48;12.40;96.40
62363;DHT22;48396;48.426;1.500;2023-03-14T15:55:14;12.60;96.40
62363;DHT22;48396;48.426;1.500;2023-03-14T15:57:43;12.60;95.90
62363;DHT22;48396;48.426;1.500;2023-03-14T16:00:12;12.60;95.70
62363;DHT22;48396;48.426;1.500;2023-03-14T16:02:40;12.60;95.50
62363;DHT22;48396;48.426;1.500;2023-03-14T16:05:08;12.60;95.40
62363;DHT22;48396;48.426;1.500;2023-03-14T16:07:35;12.70;95.30
62363;DHT22;48396;48.426;1.500;2023-03-14T16:10:01;12.80;95.30
62363;DHT22;48396;48.426;1.500;2023-03-14T16:12:27;12.90;95.20
62363;DHT22;48396;48.426;1.500;2023-03-14T16:14:53;13.00;94.80
62363;DHT22;48396;48.426;1.500;2023-03-14T16:17:18;13.10;94.80
62363;DHT22;48396;48.426;1.500;2023-03-14T16:19:44;13.30;94.80
62363;DHT22;48396;48.426;1.500;2023-03-14T16:22:10;13.40;94.10
62363;DHT22;48396;48.426;1.500;2023-03-14T16:24:36;13.40;93.80
62363;DHT22;48396;48.426;1.500;2023-03-14T16:27:02;13.30;93.10
62363;DHT22;48396;48.426;1.500;2023-03-14T16:29:29;13.00;92.30
62363;DHT22;48396;48.426;1.500;2023-03-14T16:31:55;12.90;92.80
62363;DHT22;48396;48.426;1.500;2023-03-14T16:34:21;13.00;92.80
62363;DHT22;48396;48.426;1.500;2023-03-14T16:36:47;13.10;92.50
62363;DHT22;48396;48.426;1.500;2023-03-14T16:39:13;13.00;92.50
62363;DHT22;48396;48.426;1.500;2023-03-14T16:41:39;12.90;92.20
62363;DHT22;48396;48.426;1.500;2023-03-14T16:44:05;12.80;92.00